Aeroporto :
LOGIN :

Iscrizione | Disclaimer

   EN    FR    IT 

 










Sommario :    VFR   VFR Marginale   IFR   IFR Intensivo   IFR Molto Intensivo
Visibilità : 
Base nubi : 
>= 8 km
>= 3000ft
5 / 8 km
1000 / 3000 ft
1500m / 5 km
500 / 1000 ft
800 / 1500m
200 / 500 ft
< 800m
< 200 ft
Simboli :   Temporali  Nebbia  Neve Forte  Precipitazioni Forti  Vento > 20 kt
SIGMETs :   Varie  Temporali  Ghiacco  Turbolenza  Onda orograficha  Ceneri Vulcaniche






- Altitudine del aeroporto : 286 ft
- Codice IATA : FFD


EGVA - RAF Fairford

ULTIMO METAR :
  • 250355Z AUTO 00000KT 9999 -DZ FEW032 SCT039 BKN050 09/06 A3004 RMK AO2 DZE06DZB07 SLP176 P0000 T00900061 $

METARs OBSOLETI :
  • 250307Z AUTO 00000KT 9999 -DZ FEW048 09/06 A3005 RMK AO2 DZE06DZB07 SLP180 $
  • 250255Z AUTO 00000KT 9999 -DZ FEW045 SCT065 09/07 A3005 RMK AO2 SLP180 P0000 60000 T00920065 58009 $
  • 250155Z AUTO 00000KT 9999 -DZ FEW050 BKN065 10/08 A3006 RMK AO2 SLP183 P0000 T01010075 $
  • 250055Z AUTO 00000KT 9999 -DZ OVC070 09/07 A3007 RMK AO2 SLP187 P0000 T00930067 $
  • 242355Z AUTO 00000KT 9999 -DZ BKN065 10/06 A3007 RMK AO2 SLP187 P0000 60000 T00990064 10160 20095 401630088 50002 $

TAF AMD TAF EGVA
Valido dal 24 a 13 ore il 25 a 17 ore UTC


241303Z 2413/2517 VRB06KT 9999 BKN045 QNH3006INS
BECMG 2502/2503 VRB03KT 5000 BR FEW005 BKN035 QNH3005INS
BECMG 2503/2504 VRB03KT 1600 BR BKN004 BKN035 QNH3005INS
BECMG 2506/2507 VRB03KT 5000 BR FEW005 BKN035 QNH3005INS
BECMG 2507/2508 16006KT 9999 NSW SKC QNH2995INS TX17/2511Z TN06/2503Z LAST NO AMDS AFT 2414 NEXT 2803



MetMap, La meteo Aeronautica in un colpo d'occhio ! - Copyright ORBIFLY Dicembre 2007 - Disclaimer

ORBIFLY MET'MAP TEAM :

Programmazione e sviluppo : Alexandra Zaïnal
Concezione : Baudouin d'Aumeries
Supporto tecnico e logistico : Manuel Goepfert
Aiuto : Marc-Olivier Méhu
Aiuto per la traduzione : Arnaldo La Scala




FONTI E CREDITI :

   NOAA